Terminal Aerodrome Forecast
Issued by NWS

Home | Current Version | Previous Version | Text Only | Print | Product List | Glossary On
Versions: 1 2 3 4 5 6 7 8 9 10 11 12
000
FTUS45 KTFX 222300
TAFBZN
TAF
KBZN 222336Z 2300/2324 25006KT P6SM SCT050 OVC090
      TEMPO 2300/2303 VRB20G45KT 5SM -TSRA BKN040CB
     FM230300 VRB05KT P6SM SCT120 BKN180
     FM230800 VRB05KT P6SM FEW120
     FM232000 35006KT P6SM VCTS SCT070CB BKN150=

USA.gov is the U.S. government's official web portal to all federal, state and local government web resources and services.